createdAt,value
2018-09-05T00:01:03.811Z,98548.52
2018-09-05T00:03:33.179Z,98543.56
2018-09-05T00:06:02.665Z,98547.17
2018-09-05T00:08:31.915Z,98544.68
2018-09-05T00:11:01.343Z,98541.59
2018-09-05T00:13:30.848Z,98543.36
2018-09-05T00:16:00.356Z,98543.80
2018-09-05T00:18:29.592Z,98540.44
2018-09-05T00:20:58.908Z,98534.87
2018-09-05T00:23:28.260Z,98535.26
2018-09-05T00:25:57.755Z,98535.16
2018-09-05T00:28:27.160Z,98532.92
2018-09-05T00:30:56.559Z,98530.24
2018-09-05T00:33:25.974Z,98531.31
2018-09-05T00:35:55.273Z,98533.12
2018-09-05T00:38:24.662Z,98531.36
2018-09-05T00:40:54.008Z,98528.36
2018-09-05T00:43:23.465Z,98522.97
2018-09-05T00:45:52.786Z,98527.03
2018-09-05T00:48:22.012Z,98527.74
2018-09-05T00:50:51.466Z,98525.94
2018-09-05T00:53:20.875Z,98519.22
2018-09-05T00:55:50.147Z,98526.26
2018-09-05T00:58:19.570Z,98527.59
2018-09-05T01:00:49.076Z,98524.77
2018-09-05T01:03:18.488Z,98516.80
2018-09-05T01:05:47.900Z,98525.52
2018-09-05T01:08:17.245Z,98527.12
2018-09-05T01:10:46.597Z,98522.47
2018-09-05T01:13:16.189Z,98518.12
2018-09-05T01:15:45.689Z,98522.23
2018-09-05T01:18:15.002Z,98520.32
2018-09-05T01:20:45.334Z,98524.70
2018-09-05T01:23:14.635Z,98521.26
2018-09-05T01:25:44.121Z,98520.05
2018-09-05T01:28:13.651Z,98521.09
2018-09-05T01:30:43.127Z,98522.50
2018-09-05T01:33:12.389Z,98518.95
2018-09-05T01:35:41.843Z,98508.86
2018-09-05T01:38:11.228Z,98514.48
2018-09-05T01:40:40.574Z,98521.13
2018-09-05T01:43:09.945Z,98521.13
2018-09-05T01:45:39.246Z,98519.41
2018-09-05T01:48:08.527Z,98526.48
2018-09-05T01:50:44.289Z,98522.61
2018-09-05T01:53:14.039Z,98521.48
2018-09-05T01:55:43.902Z,98528.01
2018-09-05T01:58:13.223Z,98516.81
2018-09-05T02:00:42.706Z,98517.74
2018-09-05T02:03:12.018Z,98517.69
2018-09-05T02:05:41.511Z,98515.56
2018-09-05T02:08:10.913Z,98521.61
2018-09-05T02:10:40.174Z,98518.33
2018-09-05T02:13:09.528Z,98512.59
2018-09-05T02:15:38.927Z,98514.52
2018-09-05T02:18:08.311Z,98515.95
2018-09-05T02:20:37.560Z,98515.08
2018-09-05T02:23:07.018Z,98515.09
2018-09-05T02:25:36.414Z,98520.83
2018-09-05T02:28:06.007Z,98517.96
2018-09-05T02:30:35.238Z,98517.36
2018-09-05T02:33:04.747Z,98520.52
2018-09-05T02:35:34.116Z,98521.23
2018-09-05T02:38:03.573Z,98517.90
2018-09-05T02:40:33.061Z,98511.97
2018-09-05T02:43:02.636Z,98517.08
2018-09-05T02:45:31.950Z,98520.84
2018-09-05T02:48:01.338Z,98524.53
2018-09-05T02:50:30.842Z,98515.25
2018-09-05T02:53:00.051Z,98519.73
2018-09-05T02:55:34.868Z,98518.09
2018-09-05T02:58:04.175Z,98521.76
2018-09-05T03:00:33.570Z,98519.02
2018-09-05T03:03:03.135Z,98517.36
2018-09-05T03:05:32.675Z,98520.45
2018-09-05T03:08:02.184Z,98517.48
2018-09-05T03:10:31.592Z,98522.09
2018-09-05T03:13:00.885Z,98521.38
2018-09-05T03:15:30.106Z,98525.86
2018-09-05T03:17:59.386Z,98527.80
2018-09-05T03:20:28.869Z,98527.38
2018-09-05T03:22:58.388Z,98521.67
2018-09-05T03:25:27.797Z,98529.31
2018-09-05T03:27:57.197Z,98523.00
2018-09-05T03:30:26.783Z,98523.91
2018-09-05T03:32:56.114Z,98528.08
2018-09-05T03:35:25.400Z,98525.65
2018-09-05T03:37:54.908Z,98529.22
2018-09-05T03:40:24.717Z,98529.41
2018-09-05T03:42:54.220Z,98533.47
2018-09-05T03:45:23.622Z,98530.00
2018-09-05T03:47:53.027Z,98533.69
2018-09-05T03:50:22.260Z,98533.88
2018-09-05T03:52:51.727Z,98532.03
2018-09-05T03:55:20.998Z,98530.58
2018-09-05T03:57:50.429Z,98536.09
2018-09-05T04:00:20.033Z,98536.48
2018-09-05T04:02:49.587Z,98536.98
2018-09-05T04:05:19.049Z,98537.19
2018-09-05T04:07:48.546Z,98537.41
2018-09-05T04:10:17.846Z,98540.75
2018-09-05T04:12:47.087Z,98544.13
2018-09-05T04:15:16.547Z,98535.16
2018-09-05T04:17:46.459Z,98540.32
2018-09-05T04:20:15.770Z,98538.80
2018-09-05T04:22:45.365Z,98538.69
2018-09-05T04:25:14.874Z,98540.44
2018-09-05T04:27:44.275Z,98540.20
2018-09-05T04:30:13.643Z,98540.37
2018-09-05T04:32:42.935Z,98543.13
2018-09-05T04:35:12.216Z,98541.19
2018-09-05T04:37:41.514Z,98538.88
2018-09-05T04:40:11.178Z,98540.44
2018-09-05T04:42:40.784Z,98547.85
2018-09-05T04:45:10.309Z,98546.44
2018-09-05T04:47:39.795Z,98548.47
2018-09-05T04:50:09.319Z,98548.34
2018-09-05T04:52:38.731Z,98550.38
2018-09-05T04:55:08.205Z,98547.39
2018-09-05T04:57:37.814Z,98546.48
2018-09-05T05:00:07.317Z,98553.53
2018-09-05T05:02:36.723Z,98551.60
2018-09-05T05:05:06.632Z,98558.51
2018-09-05T05:07:36.034Z,98557.10
2018-09-05T05:10:05.437Z,98561.08
2018-09-05T05:12:34.977Z,98558.24
2018-09-05T05:15:04.965Z,98566.30
2018-09-05T05:17:34.461Z,98569.34
2018-09-05T05:20:03.761Z,98569.34
2018-09-05T05:22:33.027Z,98565.71
2018-09-05T05:25:02.360Z,98572.66
2018-09-05T05:27:31.761Z,98571.43
2018-09-05T05:30:01.004Z,98576.02
2018-09-05T05:32:30.499Z,98577.44
2018-09-05T05:35:00.064Z,98574.83
2018-09-05T05:37:29.783Z,98575.44
2018-09-05T05:40:02.770Z,98572.36
2018-09-05T05:42:32.169Z,98573.19
2018-09-05T05:45:01.681Z,98572.48
2018-09-05T05:47:31.685Z,98572.14
2018-09-05T05:50:01.501Z,98580.93
2018-09-05T05:52:31.767Z,98580.02
2018-09-05T05:55:01.909Z,98578.98
2018-09-05T05:57:31.227Z,98585.14
2018-09-05T06:00:00.470Z,98583.31
2018-09-05T06:02:29.993Z,98591.08
2018-09-05T06:04:59.210Z,98579.20
2018-09-05T06:07:28.642Z,98586.93
2018-09-05T06:09:57.885Z,98588.09
2018-09-05T06:12:27.125Z,98593.51
2018-09-05T06:14:56.645Z,98590.11
2018-09-05T06:17:26.046Z,98593.88
2018-09-05T06:19:55.366Z,98590.91
2018-09-05T06:22:25.045Z,98591.63
2018-09-05T06:24:54.455Z,98594.12
2018-09-05T06:27:23.756Z,98588.70
2018-09-05T06:29:53.159Z,98590.47
2018-09-05T06:32:22.483Z,98592.84
2018-09-05T06:34:51.753Z,98587.45
2018-09-05T06:37:21.158Z,98581.27
2018-09-05T06:39:50.664Z,98584.88
2018-09-05T06:42:20.064Z,98588.55
2018-09-05T06:44:49.606Z,98589.22
2018-09-05T06:47:18.876Z,98591.33
2018-09-05T06:49:48.171Z,98589.88
2018-09-05T06:52:17.461Z,98596.31
2018-09-05T06:54:46.729Z,98596.27
2018-09-05T06:57:16.169Z,98596.09
2018-09-05T06:59:45.587Z,98602.00
2018-09-05T07:02:14.974Z,98601.29
2018-09-05T07:04:44.247Z,98599.26
2018-09-05T07:07:13.613Z,98598.73
2018-09-05T07:09:43.080Z,98597.87
2018-09-05T07:12:12.395Z,98604.13
2018-09-05T07:14:41.885Z,98606.02
2018-09-05T07:17:11.386Z,98603.81
2018-09-05T07:19:40.738Z,98601.50
2018-09-05T07:22:10.249Z,98608.20
2018-09-05T07:24:39.888Z,98604.41
2018-09-05T07:27:09.815Z,98605.66
2018-09-05T07:29:39.284Z,98612.42
2018-09-05T07:32:08.818Z,98607.99
2018-09-05T07:34:38.247Z,98610.83
2018-09-05T07:37:07.883Z,98605.38
2018-09-05T07:39:37.394Z,98614.16
2018-09-05T07:42:07.145Z,98609.12
2018-09-05T07:44:37.263Z,98609.42
2018-09-05T07:47:06.733Z,98603.13
2018-09-05T07:49:35.986Z,98611.58
2018-09-05T07:52:05.524Z,98613.65
2018-09-05T07:54:34.948Z,98610.56
2018-09-05T07:57:04.660Z,98613.53
2018-09-05T07:59:34.183Z,98614.48
2018-09-05T08:02:03.963Z,98616.64
2018-09-05T08:04:34.352Z,98620.72
2018-09-05T08:07:04.077Z,98617.67
2018-09-05T08:09:33.840Z,98621.16
2018-09-05T08:12:03.827Z,98620.34
2018-09-05T08:14:33.279Z,98625.08
2018-09-05T08:17:03.275Z,98619.83
2018-09-05T08:19:33.109Z,98614.83
2018-09-05T08:22:02.604Z,98616.55
2018-09-05T08:24:33.750Z,98622.55
2018-09-05T08:27:03.323Z,98622.80
2018-09-05T08:29:32.760Z,98622.42
2018-09-05T08:32:02.591Z,98619.26
2018-09-05T08:34:32.083Z,98614.59
2018-09-05T08:37:02.031Z,98619.35
2018-09-05T08:39:31.626Z,98620.60
2018-09-05T08:42:01.884Z,98621.80
2018-09-05T08:44:31.502Z,98615.75
2018-09-05T08:47:01.056Z,98613.89
2018-09-05T08:49:30.747Z,98608.28
2018-09-05T08:52:00.852Z,98607.84
2018-09-05T08:54:30.925Z,98603.48
2018-09-05T08:57:00.792Z,98605.18
2018-09-05T08:59:30.403Z,98598.78
2018-09-05T09:02:00.537Z,98596.23
2018-09-05T09:04:30.284Z,98599.09
2018-09-05T09:07:05.965Z,98598.95
2018-09-05T09:09:35.770Z,98595.78
2018-09-05T09:12:05.592Z,98595.84
2018-09-05T09:14:35.303Z,98591.63
2018-09-05T09:17:05.324Z,98595.48
2018-09-05T09:19:35.089Z,98589.48
2018-09-05T09:22:05.135Z,98591.18
2018-09-05T09:24:34.860Z,98586.69
2018-09-05T09:27:04.824Z,98578.84
2018-09-05T09:29:35.288Z,98587.22
2018-09-05T09:32:04.819Z,98586.19
2018-09-05T09:34:34.785Z,98578.36
2018-09-05T09:37:04.408Z,98570.02
2018-09-05T09:39:34.228Z,98571.90
2018-09-05T09:42:03.936Z,98572.44
2018-09-05T09:44:33.335Z,98571.90
2018-09-05T09:47:02.992Z,98561.92
2018-09-05T09:49:32.751Z,98568.41
2018-09-05T09:52:07.499Z,98577.25
2018-09-05T09:54:37.452Z,98563.23
2018-09-05T09:57:07.615Z,98570.00
2018-09-05T09:59:37.112Z,98565.96
2018-09-05T10:02:12.039Z,98561.02
2018-09-05T10:04:46.911Z,98567.84
2018-09-05T10:07:21.734Z,98562.22
2018-09-05T10:09:55.372Z,98558.98
2018-09-05T10:12:29.917Z,98554.34
2018-09-05T10:15:04.732Z,98552.64
2018-09-05T10:17:37.955Z,98549.59
2018-09-05T10:20:07.969Z,98543.83
2018-09-05T10:22:37.537Z,98538.70
2018-09-05T10:25:07.024Z,98544.47
2018-09-05T10:27:36.893Z,98539.63
2018-09-05T10:30:06.380Z,98538.73
2018-09-05T10:32:36.210Z,98536.28
2018-09-05T10:35:05.982Z,98534.66
2018-09-05T10:37:35.428Z,98531.98
2018-09-05T10:40:05.017Z,98528.11
2018-09-05T10:42:34.740Z,98525.41
2018-09-05T10:45:04.743Z,98524.73
2018-09-05T10:47:34.646Z,98527.41
2018-09-05T10:50:04.244Z,98525.23
2018-09-05T10:52:33.852Z,98526.67
2018-09-05T10:55:03.593Z,98523.25
2018-09-05T10:57:33.406Z,98520.67
2018-09-05T11:00:03.209Z,98518.56
2018-09-05T11:02:33.051Z,98513.18
2018-09-05T11:05:02.821Z,98512.84
2018-09-05T11:07:32.444Z,98521.17
2018-09-05T11:10:01.848Z,98513.66
2018-09-05T11:12:31.300Z,98508.56
2018-09-05T11:15:00.716Z,98512.74
2018-09-05T11:17:30.576Z,98503.00
2018-09-05T11:19:59.837Z,98503.61
2018-09-05T11:22:29.778Z,98500.47
2018-09-05T11:24:59.298Z,98498.47
2018-09-05T11:27:28.888Z,98497.59
2018-09-05T11:29:58.668Z,98498.97
2018-09-05T11:32:28.515Z,98492.80
2018-09-05T11:34:58.328Z,98494.97
2018-09-05T11:37:28.171Z,98494.88
2018-09-05T11:39:57.844Z,98484.32
2018-09-05T11:42:27.387Z,98486.89
2018-09-05T11:44:57.137Z,98487.39
2018-09-05T11:47:27.192Z,98480.19
2018-09-05T11:49:57.281Z,98473.95
2018-09-05T11:52:27.925Z,98471.11
2018-09-05T11:54:57.647Z,98474.67
2018-09-05T11:57:27.651Z,98475.45
2018-09-05T11:59:57.625Z,98469.05
2018-09-05T12:02:27.278Z,98467.58
2018-09-05T12:04:57.128Z,98471.13
2018-09-05T12:07:26.917Z,98467.05
2018-09-05T12:09:57.251Z,98459.23
2018-09-05T12:12:26.932Z,98465.92
2018-09-05T12:14:56.726Z,98460.44
2018-09-05T12:17:26.258Z,98463.93
2018-09-05T12:19:56.047Z,98461.06
2018-09-05T12:22:25.468Z,98463.50
2018-09-05T12:24:55.373Z,98461.21
2018-09-05T12:27:25.110Z,98455.19
2018-09-05T12:29:55.112Z,98451.39
2018-09-05T12:32:25.791Z,98448.80
2018-09-05T12:34:55.662Z,98448.17
2018-09-05T12:37:25.427Z,98444.80
2018-09-05T12:39:55.268Z,98311.59
2018-09-05T12:42:24.948Z,98439.19
2018-09-05T12:44:54.641Z,98442.27
2018-09-05T12:47:24.395Z,98441.17
2018-09-05T12:49:54.918Z,98435.52
2018-09-05T12:52:24.713Z,98427.39
2018-09-05T12:54:54.443Z,98433.50
2018-09-05T12:57:24.223Z,98427.48
2018-09-05T12:59:54.911Z,98429.80
2018-09-05T13:02:25.420Z,98429.87
2018-09-05T13:04:55.097Z,98420.28
2018-09-05T13:07:24.847Z,98418.11
2018-09-05T13:09:55.619Z,98415.53
2018-09-05T13:12:25.576Z,98421.56
2018-09-05T13:14:55.111Z,98422.68
2018-09-05T13:17:25.171Z,98417.43
2018-09-05T13:19:55.742Z,98417.31
2018-09-05T13:22:25.519Z,98411.95
2018-09-05T13:24:55.431Z,98414.98
2018-09-05T13:27:25.719Z,98412.25
2018-09-05T13:29:56.644Z,98413.92
2018-09-05T13:32:26.637Z,98408.30
2018-09-05T13:34:56.440Z,98401.56
2018-09-05T13:37:26.381Z,98398.70
2018-09-05T13:39:56.185Z,98398.16
2018-09-05T13:42:25.903Z,98398.77
2018-09-05T13:44:56.816Z,98395.45
2018-09-05T13:47:26.575Z,98396.58
2018-09-05T13:49:56.356Z,98388.34
2018-09-05T13:52:26.841Z,98392.15
2018-09-05T13:54:56.846Z,98382.39
2018-09-05T13:57:27.083Z,98384.30
2018-09-05T13:59:57.019Z,98392.37
2018-09-05T14:02:27.288Z,98388.42
2018-09-05T14:04:57.170Z,98384.95
2018-09-05T14:07:38.199Z,98381.47
2018-09-05T14:10:08.899Z,98373.02
2018-09-05T14:12:39.043Z,98380.23
2018-09-05T14:15:09.479Z,98377.00
2018-09-05T14:17:38.931Z,98377.59
2018-09-05T14:20:09.402Z,98374.10
2018-09-05T14:22:39.065Z,98368.73
2018-09-05T14:25:08.887Z,98364.27
2018-09-05T14:27:38.894Z,98364.64
2018-09-05T14:30:08.922Z,98367.19
2018-09-05T14:32:38.478Z,98361.83
2018-09-05T14:35:08.231Z,98365.87
2018-09-05T14:37:38.007Z,98363.83
2018-09-05T14:40:08.577Z,98354.97
2018-09-05T14:42:38.846Z,98354.20
2018-09-05T14:45:09.828Z,98352.73
2018-09-05T14:47:39.508Z,98358.30
2018-09-05T14:50:10.353Z,98353.34
2018-09-05T14:52:40.283Z,98352.05
2018-09-05T14:55:10.068Z,98353.04
2018-09-05T14:57:40.158Z,98354.56
2018-09-05T15:00:09.827Z,98344.19
2018-09-05T15:02:39.779Z,98343.99
2018-09-05T15:05:10.764Z,98350.34
2018-09-05T15:07:45.522Z,98345.27
2018-09-05T15:10:15.648Z,98340.98
2018-09-05T15:12:45.679Z,98336.66
2018-09-05T15:15:16.506Z,98335.75
2018-09-05T15:17:46.449Z,98333.47
2018-09-05T15:20:16.479Z,98334.39
2018-09-05T15:22:46.298Z,98333.64
2018-09-05T15:25:16.083Z,98326.55
2018-09-05T15:27:45.839Z,98322.20
2018-09-05T15:30:15.789Z,98325.03
2018-09-05T15:32:45.414Z,98316.14
2018-09-05T15:35:15.377Z,98314.39
2018-09-05T15:37:45.030Z,98314.39
2018-09-05T15:40:14.900Z,98312.09
2018-09-05T15:42:44.484Z,98308.58
2018-09-05T15:45:14.098Z,98313.68
2018-09-05T15:47:43.578Z,98306.75
2018-09-05T15:50:13.328Z,98316.50
2018-09-05T15:52:42.870Z,98315.44
2018-09-05T15:55:14.426Z,98312.45
2018-09-05T15:57:44.828Z,98302.93
2018-09-05T16:00:14.413Z,98303.81
2018-09-05T16:02:43.807Z,98309.09
2018-09-05T16:05:13.295Z,98312.70
2018-09-05T16:07:43.011Z,98308.20
2018-09-05T16:10:12.582Z,98309.54
2018-09-05T16:12:42.036Z,98306.81
2018-09-05T16:15:11.461Z,98309.05
2018-09-05T16:17:40.932Z,98304.44
2018-09-05T16:20:10.339Z,98306.36
2018-09-05T16:22:40.790Z,98300.63
2018-09-05T16:25:10.572Z,98300.39
2018-09-05T16:27:39.975Z,98298.02
2018-09-05T16:30:09.481Z,98302.46
2018-09-05T16:32:38.885Z,98301.59
2018-09-05T16:35:08.283Z,98296.29
2018-09-05T16:37:37.811Z,98294.77
2018-09-05T16:40:07.499Z,98295.32
2018-09-05T16:42:36.967Z,98298.17
2018-09-05T16:45:06.442Z,98291.50
2018-09-05T16:47:35.908Z,98294.66
2018-09-05T16:50:05.414Z,98292.18
2018-09-05T16:52:34.916Z,98292.30
2018-09-05T16:55:04.626Z,98295.92
2018-09-05T16:57:34.130Z,98292.99
2018-09-05T17:00:03.615Z,98290.18
2018-09-05T17:02:33.383Z,98294.70
2018-09-05T17:05:02.852Z,98290.45
2018-09-05T17:07:32.356Z,98295.08
2018-09-05T17:10:02.084Z,98294.30
2018-09-05T17:12:31.432Z,98293.60
2018-09-05T17:15:00.869Z,98301.56
2018-09-05T17:17:30.375Z,98305.47
2018-09-05T17:19:59.882Z,98305.50
2018-09-05T17:22:29.314Z,98304.47
2018-09-05T17:24:58.887Z,98309.66
2018-09-05T17:27:28.493Z,98312.14
2018-09-05T17:29:57.707Z,98307.88
2018-09-05T17:32:27.194Z,98312.75
2018-09-05T17:34:57.619Z,98311.59
2018-09-05T17:37:27.400Z,98311.65
2018-09-05T17:39:56.835Z,98313.53
2018-09-05T17:42:26.338Z,98308.72
2018-09-05T17:44:55.889Z,98312.53
2018-09-05T17:47:25.245Z,98312.04
2018-09-05T17:49:54.645Z,98318.27
2018-09-05T17:52:24.047Z,98315.60
2018-09-05T17:54:53.451Z,98314.04
2018-09-05T17:57:23.057Z,98317.55
2018-09-05T17:59:52.463Z,98316.22
2018-09-05T18:02:21.967Z,98316.48
2018-09-05T18:04:51.466Z,98321.06
2018-09-05T18:07:27.594Z,98322.95
2018-09-05T18:09:58.157Z,98325.65
2018-09-05T18:12:27.765Z,98324.77
2018-09-05T18:14:57.271Z,98326.36
2018-09-05T18:17:26.776Z,98336.56
2018-09-05T18:19:56.176Z,98327.09
2018-09-05T18:22:25.495Z,98336.44
2018-09-05T18:24:54.983Z,98335.58
2018-09-05T18:27:24.431Z,98332.84
2018-09-05T18:29:53.734Z,98341.34
2018-09-05T18:32:23.286Z,98345.07
2018-09-05T18:34:52.689Z,98342.32
2018-09-05T18:37:22.420Z,98343.89
2018-09-05T18:39:52.005Z,98341.64
2018-09-05T18:42:21.850Z,98343.45
2018-09-05T18:44:51.684Z,98351.97
2018-09-05T18:47:21.751Z,98354.56
2018-09-05T18:49:53.956Z,98351.03
2018-09-05T18:52:23.831Z,98349.31
2018-09-05T18:54:53.543Z,98341.49
2018-09-05T18:57:23.364Z,98346.77
2018-09-05T18:59:53.060Z,98347.98
2018-09-05T19:02:23.469Z,98346.25
2018-09-05T19:04:53.283Z,98347.55
2018-09-05T19:07:23.346Z,98347.70
2018-09-05T19:09:53.020Z,98349.75
2018-09-05T19:12:22.834Z,98346.73
2018-09-05T19:14:52.707Z,98342.05
2018-09-05T19:17:22.566Z,98345.16
2018-09-05T19:19:52.387Z,98345.58
2018-09-05T19:22:22.171Z,98341.67
2018-09-05T19:24:51.927Z,98340.59
2018-09-05T19:27:21.599Z,98338.61
2018-09-05T19:29:51.486Z,98342.17
2018-09-05T19:32:21.347Z,98346.52
2018-09-05T19:34:51.406Z,98349.87
2018-09-05T19:37:21.216Z,98351.55
2018-09-05T19:39:51.090Z,98347.27
2018-09-05T19:42:20.873Z,98343.91
2018-09-05T19:44:50.343Z,98347.76
2018-09-05T19:47:20.123Z,98350.85
2018-09-05T19:49:49.823Z,98344.05
2018-09-05T19:52:20.740Z,98345.05
2018-09-05T19:54:58.910Z,98339.90
2018-09-05T19:57:28.556Z,98344.85
2018-09-05T19:59:58.880Z,98347.87
2018-09-05T20:02:28.902Z,98346.13
2018-09-05T20:04:58.456Z,98349.39
2018-09-05T20:07:28.334Z,98350.23
2018-09-05T20:09:57.717Z,98348.58
2018-09-05T20:12:27.426Z,98350.89
2018-09-05T20:14:56.829Z,98353.30
2018-09-05T20:17:27.387Z,98352.75
2018-09-05T20:19:56.759Z,98352.75
2018-09-05T20:22:29.036Z,98347.70
2018-09-05T20:24:58.736Z,98355.27
2018-09-05T20:27:28.394Z,98352.09
2018-09-05T20:29:57.848Z,98351.91
2018-09-05T20:32:27.307Z,98351.73
2018-09-05T20:34:56.755Z,98351.38
2018-09-05T20:37:26.157Z,98351.44
2018-09-05T20:39:55.596Z,98349.81
2018-09-05T20:42:24.919Z,98347.10
2018-09-05T20:44:54.466Z,98352.88
2018-09-05T20:47:23.793Z,98347.14
2018-09-05T20:49:53.269Z,98350.03
2018-09-05T20:52:22.777Z,98348.48
2018-09-05T20:54:53.067Z,98349.29
2018-09-05T20:57:22.707Z,98349.29
2018-09-05T20:59:51.927Z,98355.28
2018-09-05T21:02:21.407Z,98347.64
2018-09-05T21:04:50.809Z,98354.06
2018-09-05T21:07:20.088Z,98345.27
2018-09-05T21:09:49.495Z,98347.16
2018-09-05T21:12:19.014Z,98343.06
2018-09-05T21:14:48.518Z,98343.19
2018-09-05T21:17:17.848Z,98343.61
2018-09-05T21:19:47.425Z,98343.37
2018-09-05T21:22:17.999Z,98339.80
2018-09-05T21:24:47.679Z,98340.13
2018-09-05T21:27:16.988Z,98338.56
2018-09-05T21:29:46.670Z,98340.67
2018-09-05T21:32:16.073Z,98341.58
2018-09-05T21:34:45.578Z,98341.95
2018-09-05T21:37:14.980Z,98343.41
2018-09-05T21:39:44.486Z,98346.73
2018-09-05T21:42:13.674Z,98337.70
2018-09-05T21:44:42.950Z,98343.73
2018-09-05T21:47:12.194Z,98344.19
2018-09-05T21:49:42.503Z,98340.88
2018-09-05T21:52:12.054Z,98339.45
2018-09-05T21:54:47.964Z,98343.52
2018-09-05T21:57:17.468Z,98335.32
2018-09-05T21:59:46.973Z,98338.63
2018-09-05T22:02:16.372Z,98339.07
2018-09-05T22:05:05.583Z,98337.37
2018-09-05T22:07:36.851Z,98337.55
2018-09-05T22:10:06.260Z,98338.33
2018-09-05T22:12:36.201Z,98336.17
2018-09-05T22:15:06.035Z,98338.73
2018-09-05T22:17:35.418Z,98342.34
2018-09-05T22:20:04.920Z,98340.93
2018-09-05T22:22:34.274Z,98340.00
2018-09-05T22:25:04.137Z,98335.62
2018-09-05T22:27:40.195Z,98341.52
2018-09-05T22:30:09.492Z,98343.27
2018-09-05T22:32:39.859Z,98345.78
2018-09-05T22:35:09.705Z,98346.39
2018-09-05T22:37:44.333Z,98340.96
2018-09-05T22:40:13.962Z,98338.47
2018-09-05T22:42:54.339Z,98340.52
2018-09-05T22:45:35.087Z,98336.30
2018-09-05T22:50:54.371Z,98332.95
2018-09-05T22:55:44.389Z,98325.90
2018-09-05T23:00:00.607Z,98324.45
2018-09-05T23:02:48.308Z,98322.17
2018-09-05T23:05:26.617Z,98317.39
2018-09-05T23:08:32.219Z,98310.71
2018-09-05T23:11:12.888Z,98308.86
2018-09-05T23:13:53.704Z,98317.34
2018-09-05T23:16:34.368Z,98312.05
2018-09-05T23:19:43.195Z,98316.53
2018-09-05T23:22:12.596Z,98318.52
2018-09-05T23:24:42.101Z,98311.50
2018-09-05T23:27:11.503Z,98311.58
2018-09-05T23:29:41.008Z,98311.95
2018-09-05T23:32:10.410Z,98311.57
2018-09-05T23:34:39.688Z,98303.80
2018-09-05T23:37:08.939Z,98301.84
2018-09-05T23:39:38.231Z,98300.66
2018-09-05T23:42:07.610Z,98293.98
2018-09-05T23:44:36.908Z,98299.49
2018-09-05T23:47:06.412Z,98288.13
2018-09-05T23:49:35.747Z,98292.26
2018-09-05T23:52:05.115Z,98287.61
2018-09-05T23:54:34.316Z,98288.08
2018-09-05T23:57:03.656Z,98294.48
2018-09-05T23:59:32.904Z,98286.89
